Terminal Aerodrome Forecast
Issued by NWS

Home | Current Version | Previous Version | Text Only | Print | Product List | Glossary On
Versions: 1 2 3 4 5 6 7 8 9 10 11 12 13 14 15 16 17 18 19 20 21 22 23 24 25 26 27 28 29 30 31 32
800
FTUS46 KMTR 202339
TAFSFO
TAF
KSFO 202339Z 2100/2206 27016G22KT P6SM FEW005 SCT014 BKN022
     FM210500 26014KT P6SM FEW005 BKN014 BKN020
     FM211700 27015KT P6SM SCT015 BKN025
     FM212000 28018G25KT P6SM FEW015
     FM220300 26015KT P6SM FEW015=

USA.gov is the U.S. government's official web portal to all federal, state and local government web resources and services.